createdAt,value
2018-03-08T00:00:56.721Z,52.06
2018-03-08T00:01:56.684Z,52.35
2018-03-08T00:02:56.635Z,52.25
2018-03-08T00:03:56.607Z,52.06
2018-03-08T00:04:56.557Z,52.06
2018-03-08T00:05:56.517Z,51.87
2018-03-08T00:06:56.470Z,52.16
2018-03-08T00:07:56.439Z,52.06
2018-03-08T00:08:56.404Z,52.16
2018-03-08T00:09:56.346Z,51.97
2018-03-08T00:10:56.307Z,52.16
2018-03-08T00:11:56.265Z,52.16
2018-03-08T00:12:56.224Z,52.16
2018-03-08T00:13:56.175Z,51.87
2018-03-08T00:14:56.194Z,51.87
2018-03-08T00:15:56.106Z,52.25
2018-03-08T00:16:56.060Z,51.97
2018-03-08T00:17:56.019Z,52.35
2018-03-08T00:18:55.963Z,52.16
2018-03-08T00:19:55.930Z,52.16
2018-03-08T00:20:55.883Z,52.06
2018-03-08T00:21:55.849Z,52.16
2018-03-08T00:22:55.804Z,52.06
2018-03-08T00:23:55.772Z,52.06
2018-03-08T00:24:55.718Z,51.97
2018-03-08T00:25:55.688Z,52.16
2018-03-08T00:26:55.634Z,51.87
2018-03-08T00:27:55.605Z,52.45
2018-03-08T00:28:55.551Z,52.25
2018-03-08T00:29:55.505Z,52.33
2018-03-08T00:30:55.469Z,52.35
2018-03-08T00:31:55.440Z,52.25
2018-03-08T00:32:55.405Z,52.35
2018-03-08T00:33:55.344Z,52.25
2018-03-08T00:34:55.305Z,52.45
2018-03-08T00:35:55.258Z,52.25
2018-03-08T00:36:55.223Z,52.45
2018-03-08T00:37:55.178Z,52.45
2018-03-08T00:38:55.134Z,52.16
2018-03-08T00:39:55.088Z,52.23
2018-03-08T00:40:55.054Z,52.42
2018-03-08T00:41:55.010Z,52.25
2018-03-08T00:42:54.968Z,52.13
2018-03-08T00:43:54.928Z,52.13
2018-03-08T00:44:54.884Z,52.06
2018-03-08T00:45:54.838Z,52.04
2018-03-08T00:46:54.801Z,52.13
2018-03-08T00:47:54.760Z,51.94
2018-03-08T00:48:54.719Z,51.75
2018-03-08T00:49:54.672Z,52.04
2018-03-08T00:50:54.637Z,52.04
2018-03-08T00:51:54.592Z,52.13
2018-03-08T00:52:54.550Z,52.33
2018-03-08T00:53:54.510Z,52.13
2018-03-08T00:54:54.463Z,52.23
2018-03-08T00:55:54.435Z,52.04
2018-03-08T00:56:54.384Z,51.75
2018-03-08T00:57:54.341Z,51.75
2018-03-08T00:58:54.303Z,51.84
2018-03-08T00:59:54.258Z,51.75
2018-03-08T01:00:54.211Z,51.65
2018-03-08T01:01:54.171Z,52.04
2018-03-08T01:02:54.123Z,52.04
2018-03-08T01:03:54.089Z,52.04
2018-03-08T01:04:54.050Z,51.94
2018-03-08T01:05:54.009Z,52.04
2018-03-08T01:06:53.961Z,51.94
2018-03-08T01:07:53.920Z,52.23
2018-03-08T01:08:53.878Z,51.94
2018-03-08T01:09:53.839Z,52.04
2018-03-08T01:10:53.801Z,52.13
2018-03-08T01:11:53.755Z,52.04
2018-03-08T01:12:53.716Z,52.13
2018-03-08T01:13:53.679Z,52.13
2018-03-08T01:14:53.628Z,52.04
2018-03-08T01:15:53.589Z,52.13
2018-03-08T01:16:53.549Z,52.04
2018-03-08T01:17:53.516Z,52.04
2018-03-08T01:18:53.461Z,52.23
2018-03-08T01:19:53.418Z,52.13
2018-03-08T01:20:53.377Z,52.13
2018-03-08T01:21:53.336Z,52.13
2018-03-08T01:22:53.294Z,52.13
2018-03-08T01:23:53.249Z,52.13
2018-03-08T01:24:53.210Z,52.23
2018-03-08T01:25:53.165Z,52.23
2018-03-08T01:26:53.123Z,52.04
2018-03-08T01:27:53.081Z,51.65
2018-03-08T01:28:53.042Z,51.65
2018-03-08T01:29:52.998Z,51.65
2018-03-08T01:30:52.951Z,51.46
2018-03-08T01:31:52.930Z,51.46
2018-03-08T01:32:52.880Z,51.75
2018-03-08T01:33:52.833Z,51.46
2018-03-08T01:34:52.791Z,51.65
2018-03-08T01:35:52.752Z,51.36
2018-03-08T01:36:52.721Z,51.65
2018-03-08T01:37:52.658Z,51.46
2018-03-08T01:38:52.623Z,51.46
2018-03-08T01:39:52.585Z,51.46
2018-03-08T01:40:52.561Z,51.46
2018-03-08T01:41:52.507Z,51.46
2018-03-08T01:42:52.497Z,51.65
2018-03-08T01:43:52.415Z,51.53
2018-03-08T01:44:52.361Z,51.46
2018-03-08T01:45:52.329Z,51.46
2018-03-08T01:46:52.283Z,51.46
2018-03-08T01:47:52.245Z,51.46
2018-03-08T01:48:52.203Z,51.56
2018-03-08T01:49:52.161Z,51.46
2018-03-08T01:50:52.117Z,51.46
2018-03-08T01:51:52.072Z,51.65
2018-03-08T01:52:52.030Z,51.46
2018-03-08T01:53:51.999Z,51.75
2018-03-08T01:54:51.954Z,51.46
2018-03-08T01:55:51.917Z,51.46
2018-03-08T01:56:51.923Z,51.46
2018-03-08T01:57:51.823Z,51.56
2018-03-08T01:58:51.783Z,51.75
2018-03-08T01:59:51.745Z,51.46
2018-03-08T02:00:51.715Z,51.46
2018-03-08T02:01:51.665Z,51.53
2018-03-08T02:02:51.611Z,51.43
2018-03-08T02:03:51.588Z,51.53
2018-03-08T02:04:51.531Z,51.43
2018-03-08T02:05:51.486Z,51.65
2018-03-08T02:06:51.446Z,51.43
2018-03-08T02:07:51.406Z,51.72
2018-03-08T02:08:51.365Z,51.82
2018-03-08T02:09:51.324Z,51.34
2018-03-08T02:10:51.280Z,51.75
2018-03-08T02:11:51.242Z,51.72
2018-03-08T02:12:51.203Z,51.62
2018-03-08T02:13:51.153Z,51.82
2018-03-08T02:14:51.111Z,51.82
2018-03-08T02:15:51.073Z,52.11
2018-03-08T02:16:51.019Z,52.11
2018-03-08T02:17:50.982Z,52.20
2018-03-08T02:18:50.948Z,52.20
2018-03-08T02:19:50.909Z,52.20
2018-03-08T02:20:50.871Z,52.11
2018-03-08T02:21:50.821Z,52.20
2018-03-08T02:22:50.777Z,52.20
2018-03-08T02:23:50.738Z,52.20
2018-03-08T02:24:50.690Z,52.20
2018-03-08T02:25:50.651Z,52.11
2018-03-08T02:26:50.611Z,52.20
2018-03-08T02:27:50.563Z,52.20
2018-03-08T02:28:50.521Z,52.20
2018-03-08T02:29:50.471Z,52.20
2018-03-08T02:30:50.441Z,52.01
2018-03-08T02:31:50.396Z,52.11
2018-03-08T02:32:50.360Z,52.01
2018-03-08T02:33:50.322Z,52.20
2018-03-08T02:34:50.273Z,52.11
2018-03-08T02:35:50.238Z,52.11
2018-03-08T02:36:50.191Z,51.92
2018-03-08T02:37:50.148Z,51.92
2018-03-08T02:38:50.100Z,52.01
2018-03-08T02:39:50.064Z,51.92
2018-03-08T02:40:50.022Z,52.11
2018-03-08T02:41:49.977Z,51.62
2018-03-08T02:42:49.940Z,52.01
2018-03-08T02:43:49.904Z,52.01
2018-03-08T02:44:49.853Z,51.62
2018-03-08T02:45:49.860Z,51.72
2018-03-08T02:46:49.767Z,52.01
2018-03-08T02:47:49.719Z,52.01
2018-03-08T02:48:49.685Z,51.92
2018-03-08T02:49:49.648Z,51.72
2018-03-08T02:50:49.599Z,52.11
2018-03-08T02:51:49.555Z,51.92
2018-03-08T02:52:49.513Z,52.20
2018-03-08T02:53:49.483Z,52.40
2018-03-08T02:54:49.430Z,52.20
2018-03-08T02:55:49.393Z,52.01
2018-03-08T02:56:49.352Z,52.20
2018-03-08T02:57:49.339Z,52.11
2018-03-08T02:58:49.264Z,52.20
2018-03-08T02:59:49.213Z,52.40
2018-03-08T03:00:49.183Z,52.30
2018-03-08T03:01:49.134Z,52.40
2018-03-08T03:02:49.098Z,52.20
2018-03-08T03:03:49.059Z,52.40
2018-03-08T03:04:49.015Z,52.20
2018-03-08T03:06:48.927Z,52.37
2018-03-08T03:07:48.876Z,52.08
2018-03-08T03:08:48.844Z,51.98
2018-03-08T03:09:48.857Z,51.98
2018-03-08T03:10:48.769Z,51.89
2018-03-08T03:11:48.713Z,52.08
2018-03-08T03:12:48.674Z,52.11
2018-03-08T03:13:48.627Z,52.20
2018-03-08T03:14:48.590Z,51.82
2018-03-08T03:15:48.542Z,51.79
2018-03-08T03:16:48.504Z,52.01
2018-03-08T03:17:48.457Z,52.27
2018-03-08T03:18:48.427Z,52.08
2018-03-08T03:19:48.371Z,52.18
2018-03-08T03:20:48.359Z,52.27
2018-03-08T03:21:48.291Z,52.08
2018-03-08T03:22:48.248Z,52.27
2018-03-08T03:23:48.214Z,52.18
2018-03-08T03:24:48.176Z,52.18
2018-03-08T03:25:48.121Z,52.37
2018-03-08T03:26:48.083Z,52.18
2018-03-08T03:27:48.065Z,51.98
2018-03-08T03:28:47.995Z,52.27
2018-03-08T03:29:47.950Z,52.18
2018-03-08T03:30:47.914Z,52.37
2018-03-08T03:31:47.877Z,52.27
2018-03-08T03:32:47.826Z,52.27
2018-03-08T03:33:47.794Z,52.27
2018-03-08T03:34:47.740Z,52.56
2018-03-08T03:35:47.698Z,52.37
2018-03-08T03:36:47.651Z,52.27
2018-03-08T03:37:47.629Z,52.47
2018-03-08T03:38:47.572Z,52.18
2018-03-08T03:39:47.529Z,52.37
2018-03-08T03:40:47.478Z,52.18
2018-03-08T03:41:47.455Z,52.47
2018-03-08T03:42:47.400Z,52.75
2018-03-08T03:43:47.361Z,52.18
2018-03-08T03:44:47.316Z,52.66
2018-03-08T03:45:47.284Z,52.47
2018-03-08T03:46:47.230Z,52.47
2018-03-08T03:47:47.194Z,52.56
2018-03-08T03:48:47.151Z,52.56
2018-03-08T03:49:47.109Z,52.44
2018-03-08T03:50:47.069Z,52.66
2018-03-08T03:51:47.026Z,52.54
2018-03-08T03:52:46.982Z,52.63
2018-03-08T03:53:46.941Z,52.54
2018-03-08T03:54:46.902Z,52.63
2018-03-08T03:55:46.867Z,52.54
2018-03-08T03:56:46.819Z,52.54
2018-03-08T03:57:46.776Z,52.54
2018-03-08T03:58:46.734Z,52.54
2018-03-08T03:59:46.690Z,52.54
2018-03-08T04:00:46.647Z,52.63
2018-03-08T04:01:46.598Z,52.54
2018-03-08T04:02:46.560Z,52.63
2018-03-08T04:03:46.513Z,52.54
2018-03-08T04:04:46.472Z,52.63
2018-03-08T04:05:46.428Z,52.54
2018-03-08T04:06:46.392Z,52.54
2018-03-08T04:07:46.359Z,52.54
2018-03-08T04:08:46.312Z,52.73
2018-03-08T04:09:46.276Z,52.73
2018-03-08T04:10:46.257Z,52.73
2018-03-08T04:11:46.903Z,52.54
2018-03-08T04:12:46.142Z,52.73
2018-03-08T04:13:46.098Z,52.83
2018-03-08T04:14:46.057Z,52.73
2018-03-08T04:15:46.014Z,52.44
2018-03-08T04:16:45.961Z,52.63
2018-03-08T04:17:45.923Z,52.73
2018-03-08T04:18:45.882Z,52.73
2018-03-08T04:19:45.844Z,52.73
2018-03-08T04:20:45.790Z,52.73
2018-03-08T04:21:45.745Z,52.73
2018-03-08T04:22:45.716Z,52.34
2018-03-08T04:23:45.672Z,52.34
2018-03-08T04:24:45.627Z,52.34
2018-03-08T04:25:45.589Z,52.34
2018-03-08T04:26:45.544Z,52.25
2018-03-08T04:27:45.502Z,52.44
2018-03-08T04:28:45.460Z,52.44
2018-03-08T04:29:45.419Z,52.54
2018-03-08T04:30:45.371Z,52.73
2018-03-08T04:31:45.334Z,52.34
2018-03-08T04:32:45.293Z,52.54
2018-03-08T04:33:45.243Z,52.34
2018-03-08T04:34:45.205Z,52.54
2018-03-08T04:35:45.166Z,52.34
2018-03-08T04:36:45.114Z,52.44
2018-03-08T04:37:45.085Z,52.34
2018-03-08T04:38:45.027Z,52.34
2018-03-08T04:39:44.990Z,52.73
2018-03-08T04:40:44.967Z,52.54
2018-03-08T04:41:44.906Z,52.34
2018-03-08T04:42:44.875Z,52.34
2018-03-08T04:43:44.824Z,52.34
2018-03-08T04:44:44.789Z,52.44
2018-03-08T04:45:44.758Z,52.34
2018-03-08T04:46:44.697Z,52.63
2018-03-08T04:47:44.659Z,52.34
2018-03-08T04:48:44.604Z,52.54
2018-03-08T04:49:44.574Z,52.54
2018-03-08T04:50:44.526Z,52.51
2018-03-08T04:51:44.534Z,52.54
2018-03-08T04:52:44.450Z,52.44
2018-03-08T04:53:44.919Z,52.54
2018-03-08T04:54:44.356Z,52.63
2018-03-08T04:55:44.317Z,52.83
2018-03-08T04:56:44.270Z,52.51
2018-03-08T04:57:44.223Z,52.42
2018-03-08T04:58:44.188Z,52.25
2018-03-08T04:59:44.146Z,52.44
2018-03-08T05:00:44.093Z,52.63
2018-03-08T05:01:44.054Z,52.63
2018-03-08T05:02:44.015Z,52.73
2018-03-08T05:03:43.978Z,52.32
2018-03-08T05:04:43.930Z,52.15
2018-03-08T05:05:43.888Z,52.44
2018-03-08T05:06:43.848Z,52.32
2018-03-08T05:07:43.802Z,52.63
2018-03-08T05:08:43.771Z,52.32
2018-03-08T05:09:43.719Z,52.22
2018-03-08T05:10:43.678Z,52.22
2018-03-08T05:11:43.631Z,52.22
2018-03-08T05:12:43.603Z,52.61
2018-03-08T05:13:43.547Z,52.61
2018-03-08T05:14:43.514Z,52.89
2018-03-08T05:15:43.460Z,52.70
2018-03-08T05:16:43.419Z,52.89
2018-03-08T05:17:43.374Z,52.61
2018-03-08T05:18:43.336Z,52.80
2018-03-08T05:19:43.303Z,52.51
2018-03-08T05:20:43.253Z,52.42
2018-03-08T05:21:43.212Z,52.70
2018-03-08T05:22:43.163Z,52.80
2018-03-08T05:23:43.127Z,52.61
2018-03-08T05:24:43.073Z,52.80
2018-03-08T05:25:43.036Z,52.89
2018-03-08T05:26:42.996Z,52.51
2018-03-08T05:27:42.954Z,52.42
2018-03-08T05:28:42.911Z,52.51
2018-03-08T05:29:42.873Z,52.99
2018-03-08T05:30:42.821Z,52.80
2018-03-08T05:31:42.784Z,52.51
2018-03-08T05:32:42.738Z,53.09
2018-03-08T05:33:42.698Z,52.32
2018-03-08T05:34:42.658Z,52.61
2018-03-08T05:35:42.607Z,52.80
2018-03-08T05:36:42.572Z,52.80
2018-03-08T05:37:42.516Z,52.51
2018-03-08T05:38:42.485Z,52.42
2018-03-08T05:39:42.445Z,52.99
2018-03-08T05:40:42.397Z,53.09
2018-03-08T05:41:42.356Z,52.61
2018-03-08T05:42:42.305Z,52.61
2018-03-08T05:43:42.271Z,53.09
2018-03-08T05:44:42.229Z,52.51
2018-03-08T05:45:42.186Z,52.61
2018-03-08T05:46:42.143Z,52.61
2018-03-08T05:47:42.109Z,53.09
2018-03-08T05:48:42.096Z,52.61
2018-03-08T05:49:42.018Z,52.61
2018-03-08T05:50:41.977Z,52.70
2018-03-08T05:51:41.944Z,53.19
2018-03-08T05:52:42.431Z,52.61
2018-03-08T05:53:41.843Z,52.61
2018-03-08T05:54:41.866Z,52.61
2018-03-08T05:55:41.760Z,52.32
2018-03-08T05:56:42.431Z,52.42
2018-03-08T05:57:41.677Z,52.61
2018-03-08T05:58:41.628Z,53.09
2018-03-08T05:59:41.586Z,52.61
2018-03-08T06:00:41.563Z,52.32
2018-03-08T06:01:41.507Z,52.89
2018-03-08T06:02:41.463Z,52.80
2018-03-08T06:03:41.417Z,52.51
2018-03-08T06:04:41.391Z,52.61
2018-03-08T06:05:41.333Z,52.70
2018-03-08T06:06:41.287Z,52.51
2018-03-08T06:07:41.244Z,52.89
2018-03-08T06:08:41.201Z,52.70
2018-03-08T06:09:41.164Z,52.89
2018-03-08T06:10:41.134Z,52.70
2018-03-08T06:11:41.408Z,52.42
2018-03-08T06:12:41.036Z,52.70
2018-03-08T06:13:40.991Z,52.80
2018-03-08T06:14:40.952Z,52.68
2018-03-08T06:15:40.911Z,52.42
2018-03-08T06:16:40.866Z,52.70
2018-03-08T06:17:40.821Z,52.70
2018-03-08T06:18:40.781Z,52.48
2018-03-08T06:19:40.732Z,52.51
2018-03-08T06:20:40.746Z,53.19
2018-03-08T06:21:40.641Z,52.70
2018-03-08T06:22:40.608Z,52.51
2018-03-08T06:23:40.560Z,52.51
2018-03-08T06:24:40.518Z,52.51
2018-03-08T06:25:40.475Z,52.51
2018-03-08T06:26:40.433Z,52.42
2018-03-08T06:27:40.397Z,52.70
2018-03-08T06:28:40.340Z,52.61
2018-03-08T06:29:40.314Z,52.48
2018-03-08T06:30:40.266Z,52.51
2018-03-08T06:31:40.220Z,52.70
2018-03-08T06:32:40.231Z,52.70
2018-03-08T06:33:40.137Z,52.80
2018-03-08T06:34:40.135Z,52.61
2018-03-08T06:35:40.054Z,52.61
2018-03-08T06:36:40.097Z,52.42
2018-03-08T06:37:39.967Z,52.32
2018-03-08T06:38:39.914Z,52.32
2018-03-08T06:39:39.884Z,52.22
2018-03-08T06:40:39.839Z,52.32
2018-03-08T06:41:39.797Z,52.22
2018-03-08T06:42:39.754Z,52.22
2018-03-08T06:43:39.711Z,52.22
2018-03-08T06:44:39.667Z,52.22
2018-03-08T06:45:39.618Z,51.93
2018-03-08T06:46:39.581Z,52.03
2018-03-08T06:47:39.545Z,51.93
2018-03-08T06:48:39.493Z,52.25
2018-03-08T06:49:39.476Z,52.42
2018-03-08T06:50:39.415Z,51.74
2018-03-08T06:51:39.368Z,51.93
2018-03-08T06:52:39.325Z,51.96
2018-03-08T06:53:39.278Z,52.06
2018-03-08T06:54:39.244Z,52.06
2018-03-08T06:55:39.195Z,51.57
2018-03-08T06:56:39.158Z,51.48
2018-03-08T06:57:39.117Z,51.38
2018-03-08T06:58:39.068Z,51.38
2018-03-08T06:59:39.032Z,51.38
2018-03-08T07:00:38.983Z,51.48
2018-03-08T07:01:38.959Z,50.99
2018-03-08T07:02:38.894Z,50.99
2018-03-08T07:03:38.852Z,51.19
2018-03-08T07:04:38.816Z,51.09
2018-03-08T07:05:38.767Z,51.09
2018-03-08T07:06:38.727Z,50.90
2018-03-08T07:07:38.690Z,51.09
2018-03-08T07:08:38.639Z,50.90
2018-03-08T07:09:38.619Z,50.90
2018-03-08T07:10:38.562Z,50.90
2018-03-08T07:11:38.521Z,51.02
2018-03-08T07:12:38.478Z,50.93
2018-03-08T07:13:38.481Z,50.25
2018-03-08T07:14:38.403Z,50.35
2018-03-08T07:15:38.348Z,50.35
2018-03-08T07:16:38.348Z,50.35
2018-03-08T07:17:38.258Z,50.35
2018-03-08T07:18:38.210Z,50.35
2018-03-08T07:19:38.180Z,50.06
2018-03-08T07:20:38.134Z,50.57
2018-03-08T07:21:38.096Z,50.18
2018-03-08T07:22:38.052Z,49.89
2018-03-08T07:23:38.011Z,49.48
2018-03-08T07:24:37.963Z,49.87
2018-03-08T07:25:37.923Z,49.79
2018-03-08T07:26:37.883Z,49.41
2018-03-08T07:27:37.836Z,49.41
2018-03-08T07:28:38.345Z,49.89
2018-03-08T07:29:37.754Z,49.60
2018-03-08T07:30:37.713Z,49.51
2018-03-08T07:31:37.663Z,49.60
2018-03-08T07:32:37.631Z,49.89
2018-03-08T07:33:37.590Z,49.60
2018-03-08T07:34:37.544Z,49.89
2018-03-08T07:35:37.492Z,49.70
2018-03-08T07:36:37.460Z,49.32
2018-03-08T07:37:37.415Z,48.83
2018-03-08T07:38:37.377Z,49.22
2018-03-08T07:39:37.331Z,49.34
2018-03-08T07:40:37.297Z,49.22
2018-03-08T07:41:37.249Z,49.02
2018-03-08T07:42:37.207Z,49.22
2018-03-08T07:43:37.162Z,49.15
2018-03-08T07:44:37.122Z,49.15
2018-03-08T07:45:37.091Z,48.86
2018-03-08T07:46:37.028Z,49.43
2018-03-08T07:47:36.994Z,48.95
2018-03-08T07:48:36.953Z,49.24
2018-03-08T07:49:36.911Z,49.05
2018-03-08T07:50:36.871Z,49.24
2018-03-08T07:51:36.832Z,48.86
2018-03-08T07:52:36.782Z,48.95
2018-03-08T07:53:36.733Z,48.76
2018-03-08T07:54:36.697Z,49.24
2018-03-08T07:55:36.652Z,48.57
2018-03-08T07:56:36.634Z,48.47
2018-03-08T07:57:36.571Z,48.76
2018-03-08T07:58:36.582Z,48.57
2018-03-08T07:59:36.483Z,48.47
2018-03-08T08:00:36.441Z,48.47
2018-03-08T08:01:36.402Z,48.97
2018-03-08T08:02:36.364Z,48.59
2018-03-08T08:03:36.329Z,48.88
2018-03-08T08:04:36.277Z,48.40
2018-03-08T08:05:36.235Z,48.69
2018-03-08T08:06:36.198Z,48.59
2018-03-08T08:07:36.155Z,48.30
2018-03-08T08:08:36.110Z,48.69
2018-03-08T08:09:36.072Z,48.59
2018-03-08T08:10:36.025Z,48.59
2018-03-08T08:11:35.990Z,48.40
2018-03-08T08:12:35.940Z,48.40
2018-03-08T08:13:35.901Z,48.11
2018-03-08T08:14:35.858Z,48.49
2018-03-08T08:15:35.819Z,48.11
2018-03-08T08:16:35.771Z,48.01
2018-03-08T08:17:35.739Z,48.11
2018-03-08T08:18:35.691Z,48.01
2018-03-08T08:19:35.648Z,48.21
2018-03-08T08:20:35.616Z,48.13
2018-03-08T08:21:35.560Z,48.13
2018-03-08T08:22:35.524Z,47.94
2018-03-08T08:23:35.475Z,47.85
2018-03-08T08:24:35.437Z,48.13
2018-03-08T08:25:35.402Z,47.65
2018-03-08T08:26:35.349Z,47.85
2018-03-08T08:27:35.306Z,47.85
2018-03-08T08:28:35.303Z,47.85
2018-03-08T08:29:35.231Z,47.85
2018-03-08T08:30:35.191Z,47.75
2018-03-08T08:31:35.146Z,47.94
2018-03-08T08:32:35.107Z,47.55
2018-03-08T08:33:35.062Z,47.45
2018-03-08T08:34:35.022Z,47.65
2018-03-08T08:35:34.982Z,47.29
2018-03-08T08:36:34.940Z,47.29
2018-03-08T08:37:34.900Z,47.36
2018-03-08T08:38:34.862Z,47.38
2018-03-08T08:39:34.818Z,47.29
2018-03-08T08:40:34.773Z,47.58
2018-03-08T08:41:34.737Z,47.58
2018-03-08T08:42:34.685Z,47.29
2018-03-08T08:43:34.646Z,47.48
2018-03-08T08:44:34.602Z,47.09
2018-03-08T08:45:34.564Z,47.19
2018-03-08T08:46:34.569Z,47.00
2018-03-08T08:47:34.491Z,47.48
2018-03-08T08:48:34.439Z,47.09
2018-03-08T08:49:34.402Z,47.09
2018-03-08T08:50:34.360Z,47.09
2018-03-08T08:51:34.317Z,46.90
2018-03-08T08:52:34.273Z,46.61
2018-03-08T08:53:34.224Z,47.00
2018-03-08T08:54:34.244Z,47.12
2018-03-08T08:55:34.158Z,47.12
2018-03-08T08:56:34.107Z,47.22
2018-03-08T08:57:34.083Z,47.22
2018-03-08T08:58:34.026Z,46.64
2018-03-08T08:59:33.985Z,47.02
2018-03-08T09:00:33.951Z,46.71
2018-03-08T09:01:33.956Z,46.92
2018-03-08T09:02:33.860Z,46.83
2018-03-08T09:03:33.826Z,46.54
2018-03-08T09:04:33.773Z,47.02
2018-03-08T09:05:33.731Z,46.64
2018-03-08T09:06:33.693Z,46.64
2018-03-08T09:07:33.664Z,46.44
2018-03-08T09:08:33.611Z,46.56
2018-03-08T09:09:33.567Z,46.54
2018-03-08T09:10:33.532Z,46.54
2018-03-08T09:11:33.482Z,46.75
2018-03-08T09:12:33.442Z,47.05
2018-03-08T09:13:33.406Z,47.02
2018-03-08T09:14:33.364Z,46.66
2018-03-08T09:15:33.366Z,46.66
2018-03-08T09:16:33.278Z,46.56
2018-03-08T09:17:33.235Z,46.37
2018-03-08T09:18:33.195Z,46.17
2018-03-08T09:19:33.161Z,46.17
2018-03-08T09:20:33.128Z,45.98
2018-03-08T09:21:33.065Z,45.89
2018-03-08T09:22:33.038Z,45.69
2018-03-08T09:23:32.992Z,45.89
2018-03-08T09:24:32.942Z,45.89
2018-03-08T09:25:32.908Z,45.98
2018-03-08T09:26:32.866Z,45.98
2018-03-08T09:27:32.828Z,46.08
2018-03-08T09:28:32.783Z,45.89
2018-03-08T09:29:32.743Z,45.98
2018-03-08T09:30:32.705Z,45.79
2018-03-08T09:31:32.669Z,45.69
2018-03-08T09:32:32.615Z,46.10
2018-03-08T09:33:32.573Z,46.08
2018-03-08T09:34:32.536Z,45.89
2018-03-08T09:35:32.505Z,45.98
2018-03-08T09:36:32.467Z,46.17
2018-03-08T09:37:32.414Z,46.17
2018-03-08T09:38:32.376Z,46.00
2018-03-08T09:39:32.333Z,46.00
2018-03-08T09:40:32.286Z,45.62
2018-03-08T09:41:32.246Z,46.10
2018-03-08T09:42:32.204Z,45.72
2018-03-08T09:43:32.164Z,45.91
2018-03-08T09:44:32.130Z,46.00
2018-03-08T09:45:32.102Z,45.72
2018-03-08T09:46:32.042Z,45.62
2018-03-08T09:47:32.006Z,45.62
2018-03-08T09:48:31.961Z,45.52
2018-03-08T09:49:31.908Z,45.72
2018-03-08T09:50:31.878Z,45.52
2018-03-08T09:51:31.829Z,45.72
2018-03-08T09:52:31.794Z,45.62
2018-03-08T09:53:31.752Z,45.62
2018-03-08T09:54:31.714Z,45.42
2018-03-08T09:55:31.696Z,44.94
2018-03-08T09:56:31.715Z,45.04
2018-03-08T09:57:31.682Z,45.33
2018-03-08T09:58:31.563Z,45.42
2018-03-08T09:59:31.514Z,45.42
2018-03-08T10:00:31.515Z,45.33
2018-03-08T10:01:31.427Z,45.23
2018-03-08T10:02:31.378Z,45.23
2018-03-08T10:03:31.344Z,45.23
2018-03-08T10:04:31.299Z,45.42
2018-03-08T10:05:31.262Z,45.72
2018-03-08T10:06:31.221Z,46.00
2018-03-08T10:07:31.224Z,45.72
2018-03-08T10:08:31.136Z,46.00
2018-03-08T10:09:31.095Z,46.00
2018-03-08T10:10:31.056Z,46.00
2018-03-08T10:11:31.009Z,46.58
2018-03-08T10:12:30.981Z,46.78
2018-03-08T10:13:30.933Z,46.56
2018-03-08T10:14:30.893Z,46.78
2018-03-08T10:15:30.850Z,46.68
2018-03-08T10:16:30.815Z,46.97
2018-03-08T10:17:30.761Z,46.78
2018-03-08T10:18:30.730Z,46.88
2018-03-08T10:19:30.682Z,46.88
2018-03-08T10:20:30.646Z,46.68
2018-03-08T10:21:44.454Z,47.07
2018-03-08T10:22:30.563Z,46.68
2018-03-08T10:23:30.528Z,46.97
2018-03-08T10:24:30.489Z,46.78
2018-03-08T10:25:30.442Z,46.68
2018-03-08T10:26:30.403Z,46.97
2018-03-08T10:27:30.371Z,47.16
2018-03-08T10:28:30.316Z,47.16
2018-03-08T10:29:30.287Z,47.45
2018-03-08T10:30:30.235Z,47.45
2018-03-08T10:31:30.252Z,47.16
2018-03-08T10:32:30.155Z,46.97
2018-03-08T10:33:30.108Z,47.07
2018-03-08T10:34:30.078Z,46.68
2018-03-08T10:35:30.034Z,46.88
2018-03-08T10:36:29.992Z,47.16
2018-03-08T10:37:29.949Z,46.88
2018-03-08T10:38:29.914Z,47.07
2018-03-08T10:39:29.875Z,46.97
2018-03-08T10:43:29.735Z,47.45
2018-03-08T10:44:29.671Z,47.07
2018-03-08T10:45:29.623Z,46.97
2018-03-08T10:46:29.583Z,47.09
2018-03-08T10:47:29.535Z,47.09
2018-03-08T10:48:29.506Z,47.09
2018-03-08T10:49:29.462Z,47.19
2018-03-08T10:50:29.422Z,47.19
2018-03-08T10:51:29.381Z,47.28
2018-03-08T10:52:29.332Z,46.80
2018-03-08T10:53:29.320Z,47.00
2018-03-08T10:54:29.262Z,46.90
2018-03-08T10:55:29.218Z,47.00
2018-03-08T10:56:29.182Z,46.90
2018-03-08T10:57:29.143Z,46.83
2018-03-08T10:58:29.096Z,46.53
2018-03-08T10:59:29.052Z,46.44
2018-03-08T11:00:29.015Z,46.63
2018-03-08T11:01:28.979Z,46.83
2018-03-08T11:02:28.933Z,46.73
2018-03-08T11:03:28.895Z,46.53
2018-03-08T11:04:28.846Z,46.53
2018-03-08T11:05:28.805Z,46.25
2018-03-08T11:06:28.771Z,46.25
2018-03-08T11:07:28.728Z,45.95
2018-03-08T11:08:28.706Z,46.05
2018-03-08T11:09:28.650Z,45.95
2018-03-08T11:10:28.611Z,45.95
2018-03-08T11:11:28.598Z,45.86
2018-03-08T11:12:28.521Z,46.15
2018-03-08T11:13:28.508Z,46.08
2018-03-08T11:14:28.449Z,46.26
2018-03-08T11:15:28.442Z,45.98
2018-03-08T11:16:28.367Z,45.78
2018-03-08T11:17:28.324Z,46.08
2018-03-08T11:18:28.283Z,45.78
2018-03-08T11:19:28.241Z,45.98
2018-03-08T11:20:28.212Z,46.08
2018-03-08T11:21:28.165Z,46.26
2018-03-08T11:22:28.119Z,45.78
2018-03-08T11:23:28.087Z,45.98
2018-03-08T11:24:28.043Z,45.98
2018-03-08T11:25:27.996Z,45.88
2018-03-08T11:26:27.954Z,46.17
2018-03-08T11:27:27.919Z,45.98
2018-03-08T11:28:27.880Z,45.86
2018-03-08T11:29:27.839Z,46.25
2018-03-08T11:30:27.816Z,46.56
2018-03-08T11:31:27.759Z,46.73
2018-03-08T11:32:27.711Z,46.53
2018-03-08T11:33:27.675Z,46.53
2018-03-08T11:34:27.633Z,46.63
2018-03-08T11:35:27.609Z,46.83
2018-03-08T11:36:27.558Z,46.63
2018-03-08T11:37:27.509Z,46.34
2018-03-08T11:38:27.518Z,46.92
2018-03-08T11:39:27.433Z,46.92
2018-03-08T11:40:27.393Z,47.11
2018-03-08T11:41:27.355Z,47.02
2018-03-08T11:42:27.297Z,47.02
2018-03-08T11:43:27.327Z,47.21
2018-03-08T11:44:27.229Z,47.48
2018-03-08T11:45:27.188Z,47.48
2018-03-08T11:46:27.150Z,47.77
2018-03-08T11:47:27.110Z,47.86
2018-03-08T11:48:27.071Z,48.06
2018-03-08T11:49:27.025Z,47.96
2018-03-08T11:50:26.988Z,48.06
2018-03-08T11:51:26.939Z,47.86
2018-03-08T11:52:26.908Z,48.25
2018-03-08T11:53:26.878Z,48.13
2018-03-08T11:54:26.845Z,48.32
2018-03-08T11:55:26.780Z,48.90
2018-03-08T11:56:26.735Z,48.61
2018-03-08T11:57:26.702Z,48.61
2018-03-08T11:58:26.678Z,48.23
2018-03-08T11:59:26.621Z,48.61
2018-03-08T12:00:26.582Z,48.81
2018-03-08T12:01:26.591Z,48.81
2018-03-08T12:02:26.495Z,48.71
2018-03-08T12:03:26.449Z,48.52
2018-03-08T12:04:26.416Z,48.71
2018-03-08T12:05:26.380Z,48.32
2018-03-08T12:06:26.334Z,48.61
2018-03-08T12:07:26.296Z,48.71
2018-03-08T12:08:26.254Z,48.52
2018-03-08T12:09:26.214Z,48.90
2018-03-08T12:10:26.180Z,48.52
2018-03-08T12:11:26.153Z,48.61
2018-03-08T12:12:26.092Z,48.71
2018-03-08T12:13:26.053Z,48.81
2018-03-08T12:14:26.013Z,48.61
2018-03-08T12:15:25.970Z,48.71
2018-03-08T12:16:25.936Z,49.00
2018-03-08T12:17:25.886Z,48.52
2018-03-08T12:18:25.852Z,48.61
2018-03-08T12:19:25.807Z,48.81
2018-03-08T12:20:25.761Z,49.10
2018-03-08T12:21:25.725Z,48.81
2018-03-08T12:22:25.689Z,48.61
2018-03-08T12:23:25.657Z,48.71
2018-03-08T12:24:25.618Z,48.90
2018-03-08T12:25:25.566Z,48.71
2018-03-08T12:26:25.524Z,48.52
2018-03-08T12:27:25.483Z,48.61
2018-03-08T12:28:25.435Z,48.61
2018-03-08T12:29:25.397Z,48.71
2018-03-08T12:30:25.363Z,48.71
2018-03-08T12:31:25.325Z,49.19
2018-03-08T12:32:25.272Z,49.00
2018-03-08T12:33:25.269Z,48.61
2018-03-08T12:34:25.234Z,48.52
2018-03-08T12:35:25.157Z,48.90
2018-03-08T12:36:25.118Z,48.52
2018-03-08T12:37:25.073Z,48.90
2018-03-08T12:38:25.032Z,48.61
2018-03-08T12:39:24.998Z,48.79
2018-03-08T12:40:24.958Z,48.81
2018-03-08T12:41:24.909Z,48.52
2018-03-08T12:42:24.875Z,48.49
2018-03-08T12:43:24.828Z,44.26
2018-03-08T12:44:24.788Z,45.01
2018-03-08T12:45:24.750Z,47.07
2018-03-08T12:46:24.728Z,47.16
2018-03-08T12:47:24.665Z,46.95
2018-03-08T12:48:24.628Z,47.14
2018-03-08T12:49:24.583Z,47.43
2018-03-08T12:50:24.544Z,47.43
2018-03-08T12:51:24.507Z,47.14
2018-03-08T12:52:24.463Z,47.33
2018-03-08T12:53:24.420Z,47.91
2018-03-08T12:54:24.380Z,47.72
2018-03-08T12:55:24.340Z,47.72
2018-03-08T12:56:24.298Z,47.33